createdAt,value
2017-09-14T00:01:17.036Z,97.90
2017-09-14T00:03:44.539Z,98.00
2017-09-14T00:06:12.851Z,98.80
2017-09-14T00:08:40.386Z,98.80
2017-09-14T00:11:07.930Z,98.70
2017-09-14T00:13:35.467Z,98.80
2017-09-14T00:16:03.572Z,98.70
2017-09-14T00:18:31.104Z,98.60
2017-09-14T00:20:58.655Z,98.00
2017-09-14T00:23:26.170Z,97.70
2017-09-14T00:25:54.495Z,98.80
2017-09-14T00:28:21.999Z,98.80
2017-09-14T00:30:50.282Z,99.30
2017-09-14T00:33:18.591Z,99.30
2017-09-14T00:35:46.122Z,99.30
2017-09-14T00:38:14.402Z,98.50
2017-09-14T00:40:42.726Z,98.70
2017-09-14T00:43:11.015Z,98.20
2017-09-14T00:45:38.644Z,98.20
2017-09-14T00:48:06.165Z,98.20
2017-09-14T00:50:34.448Z,98.20
2017-09-14T00:53:03.663Z,97.40
2017-09-14T00:55:31.170Z,97.40
2017-09-14T00:57:59.494Z,97.30
2017-09-14T01:00:27.783Z,97.10
2017-09-14T01:02:55.327Z,97.00
2017-09-14T01:05:23.611Z,97.00
2017-09-14T01:07:51.134Z,97.00
2017-09-14T01:10:18.658Z,96.80
2017-09-14T01:12:46.234Z,97.50
2017-09-14T01:15:31.479Z,97.90
2017-09-14T01:17:59.002Z,97.80
2017-09-14T01:20:27.281Z,97.60
2017-09-14T01:22:55.610Z,97.10
2017-09-14T01:25:23.155Z,97.00
2017-09-14T01:27:50.679Z,97.00
2017-09-14T01:30:19.010Z,96.80
2017-09-14T01:32:46.560Z,96.80
2017-09-14T01:35:14.092Z,96.40
2017-09-14T01:37:42.391Z,96.20
2017-09-14T01:40:09.903Z,96.30
2017-09-14T01:42:38.244Z,95.60
2017-09-14T01:45:05.795Z,95.60
2017-09-14T01:47:33.362Z,95.70
2017-09-14T01:50:00.894Z,95.60
2017-09-14T01:52:29.203Z,96.60
2017-09-14T01:54:56.770Z,96.60
2017-09-14T01:57:24.476Z,96.50
2017-09-14T01:59:52.778Z,96.30
2017-09-14T02:02:20.306Z,96.20
2017-09-14T02:04:47.831Z,95.90
2017-09-14T02:07:15.358Z,96.10
2017-09-14T02:09:42.858Z,95.90
2017-09-14T02:12:10.423Z,96.70
2017-09-14T02:14:37.944Z,97.00
2017-09-14T02:17:05.499Z,97.50
2017-09-14T02:19:33.006Z,97.70
2017-09-14T02:22:00.556Z,97.60
2017-09-14T02:24:28.080Z,97.30
2017-09-14T02:26:55.617Z,97.10
2017-09-14T02:29:23.921Z,96.80
2017-09-14T02:31:51.459Z,96.70
2017-09-14T02:34:19.053Z,96.50
2017-09-14T02:36:46.668Z,96.60
2017-09-14T02:39:15.029Z,96.70
2017-09-14T02:41:42.602Z,96.60
2017-09-14T02:44:10.895Z,97.40
2017-09-14T02:46:39.236Z,97.30
2017-09-14T02:49:06.784Z,97.30
2017-09-14T02:51:34.326Z,97.30
2017-09-14T02:54:01.932Z,97.50
2017-09-14T02:56:30.233Z,97.30
2017-09-14T02:58:58.518Z,97.50
2017-09-14T03:01:26.044Z,97.50
2017-09-14T03:03:53.612Z,97.40
2017-09-14T03:06:21.898Z,97.90
2017-09-14T03:08:50.274Z,97.70
2017-09-14T03:11:18.589Z,97.50
2017-09-14T03:13:46.146Z,97.50
2017-09-14T03:16:13.666Z,97.20
2017-09-14T03:18:41.958Z,97.40
2017-09-14T03:21:10.234Z,97.70
2017-09-14T03:23:38.518Z,98.20
2017-09-14T03:26:06.027Z,98.20
2017-09-14T03:28:33.590Z,98.00
2017-09-14T03:31:01.130Z,97.60
2017-09-14T03:33:28.711Z,97.50
2017-09-14T03:35:56.374Z,97.00
2017-09-14T03:38:23.911Z,96.90
2017-09-14T03:40:51.452Z,96.80
2017-09-14T03:43:18.993Z,96.90
2017-09-14T03:45:47.270Z,96.40
2017-09-14T03:48:15.559Z,96.60
2017-09-14T03:50:43.139Z,96.60
2017-09-14T03:53:10.682Z,96.60
2017-09-14T03:55:38.202Z,96.90
2017-09-14T03:58:05.762Z,97.70
2017-09-14T04:00:33.270Z,97.80
2017-09-14T04:03:00.835Z,97.40
2017-09-14T04:05:28.346Z,97.20
2017-09-14T04:07:55.886Z,96.70
2017-09-14T04:10:24.184Z,96.60
2017-09-14T04:12:52.501Z,96.60
2017-09-14T04:15:20.030Z,96.60
2017-09-14T04:17:48.337Z,97.10
2017-09-14T04:20:15.911Z,97.00
2017-09-14T04:22:43.455Z,96.80
2017-09-14T04:25:10.989Z,96.70
2017-09-14T04:27:39.318Z,96.90
2017-09-14T04:30:06.836Z,96.90
2017-09-14T04:32:35.143Z,97.00
2017-09-14T04:35:02.704Z,97.00
2017-09-14T04:37:30.239Z,97.10
2017-09-14T04:39:57.787Z,96.90
2017-09-14T04:42:26.070Z,96.70
2017-09-14T04:44:54.398Z,96.70
2017-09-14T04:47:21.914Z,96.60
2017-09-14T04:49:49.482Z,96.80
2017-09-14T04:52:17.797Z,96.40
2017-09-14T04:54:45.329Z,96.30
2017-09-14T04:57:12.863Z,96.00
2017-09-14T04:59:40.429Z,96.20
2017-09-14T05:02:07.943Z,96.20
2017-09-14T05:04:35.493Z,96.10
2017-09-14T05:07:03.001Z,96.40
2017-09-14T05:09:30.545Z,96.20
2017-09-14T05:11:58.830Z,96.00
2017-09-14T05:14:27.138Z,96.10
2017-09-14T05:16:54.647Z,96.00
2017-09-14T05:19:22.182Z,96.30
2017-09-14T05:21:49.700Z,96.40
2017-09-14T05:24:17.234Z,96.20
2017-09-14T05:26:44.738Z,95.50
2017-09-14T05:29:12.294Z,95.30
2017-09-14T05:31:39.812Z,95.40
2017-09-14T05:34:08.144Z,96.30
2017-09-14T05:36:35.674Z,95.90
2017-09-14T05:39:03.210Z,95.80
2017-09-14T05:41:31.524Z,96.40
2017-09-14T05:43:59.074Z,96.40
2017-09-14T05:46:26.611Z,96.10
2017-09-14T05:48:54.941Z,96.10
2017-09-14T05:51:22.454Z,96.00
2017-09-14T05:53:50.756Z,95.80
2017-09-14T05:56:18.322Z,95.80
2017-09-14T05:58:46.075Z,95.40
2017-09-14T06:01:13.721Z,95.20
2017-09-14T06:03:41.292Z,95.50
2017-09-14T06:06:08.937Z,95.50
2017-09-14T06:08:36.524Z,95.50
2017-09-14T06:11:05.036Z,95.50
2017-09-14T06:13:32.814Z,95.80
2017-09-14T06:16:00.321Z,95.50
2017-09-14T06:18:28.030Z,95.10
2017-09-14T06:20:55.699Z,94.70
2017-09-14T06:23:23.271Z,94.90
2017-09-14T06:25:50.882Z,94.20
2017-09-14T06:28:18.583Z,94.40
2017-09-14T06:30:46.191Z,93.70
2017-09-14T06:33:13.773Z,93.60
2017-09-14T06:35:41.385Z,93.40
2017-09-14T06:38:09.123Z,93.90
2017-09-14T06:40:36.879Z,93.30
2017-09-14T06:43:05.680Z,93.50
2017-09-14T06:45:33.315Z,93.20
2017-09-14T06:48:01.063Z,93.10
2017-09-14T06:50:28.677Z,93.00
2017-09-14T06:52:56.247Z,93.20
2017-09-14T06:55:24.565Z,93.50
2017-09-14T06:57:52.129Z,93.50
2017-09-14T07:00:19.667Z,93.20
2017-09-14T07:02:47.943Z,92.00
2017-09-14T07:05:16.242Z,92.00
2017-09-14T07:07:43.769Z,92.00
2017-09-14T07:10:12.107Z,91.70
2017-09-14T07:12:39.619Z,91.70
2017-09-14T07:15:07.151Z,92.20
2017-09-14T07:17:34.706Z,92.10
2017-09-14T07:20:02.274Z,92.10
2017-09-14T07:22:30.578Z,92.10
2017-09-14T07:24:58.898Z,92.30
2017-09-14T07:27:26.426Z,92.20
2017-09-14T07:29:54.710Z,92.10
2017-09-14T07:32:23.010Z,92.00
2017-09-14T07:34:50.564Z,92.00
2017-09-14T07:37:18.103Z,92.40
2017-09-14T07:39:45.623Z,92.70
2017-09-14T07:42:13.166Z,92.20
2017-09-14T07:44:40.712Z,92.60
2017-09-14T07:47:08.238Z,92.60
2017-09-14T07:49:35.801Z,92.30
2017-09-14T07:52:03.306Z,91.70
2017-09-14T07:54:31.903Z,91.30
2017-09-14T07:56:59.411Z,90.50
2017-09-14T07:59:26.953Z,90.00
2017-09-14T08:01:54.479Z,89.00
2017-09-14T08:04:22.008Z,90.90
2017-09-14T08:06:49.546Z,90.40
2017-09-14T08:09:17.873Z,90.00
2017-09-14T08:11:45.427Z,89.90
2017-09-14T08:14:12.962Z,88.70
2017-09-14T08:16:40.508Z,90.20
2017-09-14T08:19:08.023Z,88.60
2017-09-14T08:21:35.591Z,88.10
2017-09-14T08:24:04.811Z,88.20
2017-09-14T08:26:33.118Z,87.00
2017-09-14T08:29:00.669Z,87.00
2017-09-14T08:31:28.195Z,86.50
2017-09-14T08:33:56.515Z,87.10
2017-09-14T08:36:24.094Z,87.00
2017-09-14T08:38:51.618Z,90.40
2017-09-14T08:41:19.150Z,90.00
2017-09-14T08:43:47.431Z,91.00
2017-09-14T08:46:15.764Z,93.70
2017-09-14T08:48:43.298Z,93.60
2017-09-14T08:51:11.785Z,94.80
2017-09-14T08:53:39.323Z,94.70
2017-09-14T08:56:06.843Z,93.40
2017-09-14T08:58:34.374Z,94.20
2017-09-14T09:01:01.947Z,92.20
2017-09-14T09:03:29.454Z,94.70
2017-09-14T09:05:57.766Z,93.50
2017-09-14T09:08:25.299Z,93.50
2017-09-14T09:10:52.858Z,92.10
2017-09-14T09:13:20.374Z,91.20
2017-09-14T09:15:47.944Z,90.40
2017-09-14T09:18:15.471Z,88.90
2017-09-14T09:20:43.049Z,90.60
2017-09-14T09:23:10.586Z,89.10
2017-09-14T09:25:38.117Z,87.00
2017-09-14T09:28:05.638Z,84.60
2017-09-14T09:30:33.179Z,87.20
2017-09-14T09:33:00.710Z,85.00
2017-09-14T09:35:28.266Z,81.70
2017-09-14T09:37:55.830Z,80.30
2017-09-14T09:40:23.379Z,79.20
2017-09-14T09:42:50.881Z,70.30
2017-09-14T09:45:18.420Z,68.10
2017-09-14T09:47:45.934Z,71.60
2017-09-14T09:50:14.245Z,82.10
2017-09-14T09:52:41.784Z,82.00
2017-09-14T09:55:09.327Z,90.50
2017-09-14T09:57:36.836Z,91.10
2017-09-14T10:00:05.318Z,90.60
2017-09-14T10:02:32.867Z,91.30
2017-09-14T10:05:00.399Z,93.20
2017-09-14T10:07:28.718Z,92.20
2017-09-14T10:09:56.244Z,92.20
2017-09-14T10:12:24.563Z,87.00
2017-09-14T10:14:52.082Z,86.90
2017-09-14T10:17:20.388Z,75.30
2017-09-14T10:19:47.906Z,75.10
2017-09-14T10:22:15.475Z,66.70
2017-09-14T10:24:43.798Z,63.40
2017-09-14T10:27:11.347Z,63.30
2017-09-14T10:29:39.643Z,71.50
2017-09-14T10:32:07.206Z,71.40
2017-09-14T10:34:34.734Z,75.30
2017-09-14T10:37:02.274Z,78.30
2017-09-14T10:39:29.787Z,85.30
2017-09-14T10:41:57.319Z,87.00
2017-09-14T10:44:24.882Z,87.80
2017-09-14T10:46:52.465Z,90.80
2017-09-14T10:49:19.975Z,85.50
2017-09-14T10:51:47.533Z,90.60
2017-09-14T10:54:15.090Z,80.30
2017-09-14T10:56:42.642Z,71.00
2017-09-14T10:59:10.992Z,76.10
2017-09-14T11:01:38.529Z,60.60
2017-09-14T11:04:06.971Z,59.00
2017-09-14T11:06:34.494Z,58.90
2017-09-14T11:09:02.028Z,57.10
2017-09-14T11:11:29.563Z,57.00
2017-09-14T11:13:57.078Z,55.20
2017-09-14T11:16:25.704Z,53.80
2017-09-14T11:18:55.271Z,54.70
2017-09-14T11:21:25.125Z,53.60
2017-09-14T11:23:53.007Z,51.90
2017-09-14T11:26:20.554Z,56.50
2017-09-14T11:28:48.079Z,57.90
2017-09-14T11:31:16.397Z,61.00
2017-09-14T11:33:43.924Z,61.00
2017-09-14T11:36:12.506Z,68.80
2017-09-14T11:38:42.866Z,70.90
2017-09-14T11:41:13.771Z,70.80
2017-09-14T11:43:42.259Z,74.30
2017-09-14T11:46:10.573Z,72.80
2017-09-14T11:48:38.101Z,72.80
2017-09-14T11:51:13.511Z,71.60
2017-09-14T11:53:41.039Z,72.40
2017-09-14T11:56:08.634Z,69.40
2017-09-14T11:58:36.164Z,71.40
2017-09-14T12:01:03.717Z,68.40
2017-09-14T12:03:31.251Z,63.50
2017-09-14T12:05:58.762Z,56.70
2017-09-14T12:08:26.274Z,53.40
2017-09-14T12:10:53.802Z,51.10
2017-09-14T12:13:22.102Z,50.50
2017-09-14T12:15:49.614Z,50.40
2017-09-14T12:18:17.212Z,49.30
2017-09-14T12:20:45.595Z,49.00
2017-09-14T12:23:13.896Z,47.80
2017-09-14T12:25:41.428Z,47.70
2017-09-14T12:28:09.762Z,47.60
2017-09-14T12:30:37.306Z,47.60
2017-09-14T12:33:05.890Z,45.20
2017-09-14T12:35:34.431Z,44.20
2017-09-14T12:38:01.971Z,43.10
2017-09-14T12:40:30.270Z,43.40
2017-09-14T12:42:58.609Z,43.70
2017-09-14T12:45:26.160Z,43.80
2017-09-14T12:47:53.717Z,42.80
2017-09-14T12:50:21.270Z,41.50
2017-09-14T12:52:48.866Z,42.50
2017-09-14T12:55:16.383Z,43.30
2017-09-14T12:57:43.898Z,43.00
2017-09-14T13:00:12.171Z,46.00
2017-09-14T13:02:40.482Z,46.30
2017-09-14T13:05:08.045Z,46.00
2017-09-14T13:07:35.573Z,45.70
2017-09-14T13:10:03.135Z,46.20
2017-09-14T13:12:30.711Z,48.50
2017-09-14T13:14:58.321Z,49.80
2017-09-14T13:17:25.847Z,51.00
2017-09-14T13:19:53.363Z,54.80
2017-09-14T13:22:20.912Z,51.40
2017-09-14T13:24:49.367Z,48.70
2017-09-14T13:27:16.916Z,51.40
2017-09-14T13:29:44.459Z,53.50
2017-09-14T13:32:12.080Z,52.80
2017-09-14T13:34:39.641Z,54.70
2017-09-14T13:37:07.214Z,54.30
2017-09-14T13:39:35.538Z,56.00
2017-09-14T13:42:03.110Z,55.90
2017-09-14T13:44:30.771Z,58.10
2017-09-14T13:46:58.336Z,60.30
2017-09-14T13:49:25.843Z,58.80
2017-09-14T13:51:54.152Z,60.10
2017-09-14T13:54:21.747Z,59.50
2017-09-14T13:56:49.277Z,59.70
2017-09-14T13:59:16.827Z,62.90
2017-09-14T14:01:44.338Z,67.30
2017-09-14T14:04:11.888Z,66.20
2017-09-14T14:06:39.387Z,65.20
2017-09-14T14:09:07.018Z,67.10
2017-09-14T14:11:34.534Z,66.30
2017-09-14T14:14:02.100Z,65.10
2017-09-14T14:16:29.604Z,66.80
2017-09-14T14:18:57.158Z,66.80
2017-09-14T14:21:24.685Z,66.40
2017-09-14T14:23:52.239Z,64.90
2017-09-14T14:26:19.808Z,64.90
2017-09-14T14:28:47.410Z,66.20
2017-09-14T14:31:15.687Z,69.10
2017-09-14T14:33:44.015Z,72.20
2017-09-14T14:36:11.617Z,72.00
2017-09-14T14:38:39.147Z,72.60
2017-09-14T14:41:06.679Z,78.30
2017-09-14T14:43:34.228Z,83.70
2017-09-14T14:46:01.734Z,84.10
2017-09-14T14:48:29.287Z,88.70
2017-09-14T14:50:56.790Z,85.80
2017-09-14T14:53:25.124Z,90.80
2017-09-14T14:55:52.665Z,90.80
2017-09-14T14:58:20.195Z,91.00
2017-09-14T15:00:48.509Z,93.00
2017-09-14T15:03:17.571Z,93.40
2017-09-14T15:05:45.098Z,93.60
2017-09-14T15:08:12.627Z,93.50
2017-09-14T15:10:40.146Z,93.80
2017-09-14T15:13:08.450Z,95.10
2017-09-14T15:15:36.051Z,95.10
2017-09-14T15:18:03.607Z,94.10
2017-09-14T15:20:31.401Z,94.50
2017-09-14T15:22:59.807Z,95.70
2017-09-14T15:25:27.573Z,95.60
2017-09-14T15:27:56.217Z,95.70
2017-09-14T15:30:23.780Z,95.40
2017-09-14T15:32:52.185Z,97.40
2017-09-14T15:35:19.732Z,97.40
2017-09-14T15:37:53.018Z,97.80
2017-09-14T15:40:26.364Z,97.60
2017-09-14T15:42:59.639Z,98.30
2017-09-14T15:45:32.894Z,97.90
2017-09-14T15:48:00.414Z,98.60
2017-09-14T15:53:30.756Z,99.30
2017-09-14T15:55:58.278Z,99.60
2017-09-14T15:58:26.558Z,99.20
2017-09-14T16:00:54.880Z,99.30
2017-09-14T16:03:22.390Z,99.20
2017-09-14T16:05:50.710Z,99.80
2017-09-14T16:08:18.243Z,99.80
2017-09-14T16:10:46.545Z,99.50
2017-09-14T16:13:14.062Z,99.50
2017-09-14T16:15:42.457Z,99.10
2017-09-14T16:18:11.079Z,99.00
2017-09-14T16:20:38.686Z,99.00
2017-09-14T16:23:06.988Z,99.90
2017-09-14T16:25:34.534Z,99.90
2017-09-14T16:28:02.051Z,99.90
2017-09-14T16:30:29.595Z,99.90
2017-09-14T16:32:57.130Z,99.90
2017-09-14T16:35:24.683Z,99.90
2017-09-14T16:37:52.240Z,99.90
2017-09-14T16:40:20.191Z,99.90
2017-09-14T16:42:48.475Z,99.90
2017-09-14T16:45:16.052Z,99.90
2017-09-14T16:47:43.571Z,99.90
2017-09-14T16:50:11.122Z,99.90
2017-09-14T16:52:38.650Z,99.90
2017-09-14T16:55:06.232Z,99.90
2017-09-14T16:57:33.760Z,99.90
2017-09-14T17:00:01.322Z,99.90
2017-09-14T17:02:28.847Z,99.90
2017-09-14T17:04:57.261Z,99.90
2017-09-14T17:07:24.772Z,99.90
2017-09-14T17:09:52.333Z,99.90
2017-09-14T17:12:19.856Z,99.90
2017-09-14T17:14:47.383Z,99.90
2017-09-14T17:17:14.946Z,99.90
2017-09-14T17:19:42.498Z,99.90
2017-09-14T17:22:10.073Z,99.90
2017-09-14T17:24:37.619Z,99.90
2017-09-14T17:27:05.191Z,99.90
2017-09-14T17:29:32.726Z,99.90
2017-09-14T17:32:01.026Z,99.90
2017-09-14T17:34:28.627Z,99.90
2017-09-14T17:36:56.151Z,99.90
2017-09-14T17:39:23.694Z,99.90
2017-09-14T17:41:51.255Z,99.90
2017-09-14T17:44:18.783Z,99.90
2017-09-14T17:46:46.321Z,99.90
2017-09-14T17:49:13.871Z,99.90
2017-09-14T17:51:41.418Z,99.90
2017-09-14T17:54:08.943Z,99.90
2017-09-14T17:56:37.278Z,99.90
2017-09-14T17:59:04.827Z,99.90
2017-09-14T18:01:32.362Z,99.90
2017-09-14T18:03:59.864Z,99.90
2017-09-14T18:06:27.405Z,99.90
2017-09-14T18:08:54.906Z,99.90
2017-09-14T18:11:22.494Z,99.90
2017-09-14T18:13:50.020Z,99.90
2017-09-14T18:16:17.567Z,99.90
2017-09-14T18:18:45.085Z,99.90
2017-09-14T18:21:12.619Z,99.90
2017-09-14T18:23:40.179Z,99.90
2017-09-14T18:26:08.519Z,99.90
2017-09-14T18:28:36.046Z,99.90
2017-09-14T18:31:03.600Z,99.90
2017-09-14T18:33:31.112Z,99.90
2017-09-14T18:35:58.658Z,99.90
2017-09-14T18:38:26.190Z,99.90
2017-09-14T18:40:53.751Z,99.90
2017-09-14T18:43:21.256Z,99.90
2017-09-14T18:45:48.818Z,99.90
2017-09-14T18:48:16.337Z,99.90
2017-09-14T18:50:43.862Z,99.90
2017-09-14T18:53:11.406Z,99.90
2017-09-14T18:55:39.712Z,99.90
2017-09-14T18:58:07.235Z,99.90
2017-09-14T19:00:34.791Z,99.90
2017-09-14T19:03:02.323Z,99.90
2017-09-14T19:05:29.863Z,99.90
2017-09-14T19:07:57.380Z,99.90
2017-09-14T19:10:25.689Z,99.90
2017-09-14T19:12:53.207Z,99.90
2017-09-14T19:15:20.715Z,99.90
2017-09-14T19:17:48.294Z,99.90
2017-09-14T19:20:15.798Z,99.90
2017-09-14T19:22:44.103Z,99.90
2017-09-14T19:25:11.635Z,99.90
2017-09-14T19:27:39.922Z,99.90
2017-09-14T19:30:08.254Z,99.90
2017-09-14T19:32:35.794Z,99.90
2017-09-14T19:35:03.327Z,99.90
2017-09-14T19:37:30.870Z,99.90
2017-09-14T19:39:59.160Z,99.90
2017-09-14T19:42:26.718Z,99.90
2017-09-14T19:44:55.013Z,99.90
2017-09-14T19:47:22.551Z,99.90
2017-09-14T19:49:50.844Z,99.90
2017-09-14T19:52:18.408Z,99.90
2017-09-14T19:54:45.949Z,99.90
2017-09-14T19:57:14.244Z,99.90
2017-09-14T19:59:41.765Z,99.90
2017-09-14T20:02:09.315Z,99.90
2017-09-14T20:04:36.855Z,99.90
2017-09-14T20:07:04.395Z,99.90
2017-09-14T20:09:31.911Z,99.90
2017-09-14T20:12:00.247Z,99.90
2017-09-14T20:14:27.800Z,99.90
2017-09-14T20:16:55.563Z,99.90
2017-09-14T20:19:24.183Z,99.90
2017-09-14T20:21:51.754Z,99.90
2017-09-14T20:24:20.079Z,99.90
2017-09-14T20:26:47.608Z,99.90
2017-09-14T20:29:16.916Z,99.90
2017-09-14T20:31:45.221Z,99.90
2017-09-14T20:34:12.833Z,99.90
2017-09-14T20:36:40.398Z,99.90
2017-09-14T20:39:08.770Z,99.90
2017-09-14T20:41:37.859Z,99.90
2017-09-14T20:44:05.411Z,99.90
2017-09-14T20:46:32.950Z,99.90
2017-09-14T20:49:00.504Z,99.90
2017-09-14T20:51:28.183Z,99.90
2017-09-14T20:53:55.848Z,99.90
2017-09-14T20:56:23.448Z,99.90
2017-09-14T20:58:51.074Z,99.90
2017-09-14T21:01:18.594Z,99.90
2017-09-14T21:03:46.152Z,99.90
2017-09-14T21:06:13.702Z,99.90
2017-09-14T21:08:41.408Z,99.90
2017-09-14T21:11:08.982Z,99.90
2017-09-14T21:13:36.534Z,99.90
2017-09-14T21:16:05.578Z,99.90
2017-09-14T21:18:33.142Z,99.90
2017-09-14T21:21:00.657Z,99.90
2017-09-14T21:23:28.229Z,99.90
2017-09-14T21:25:55.766Z,99.90
2017-09-14T21:28:23.294Z,99.90
2017-09-14T21:30:50.826Z,99.90
2017-09-14T21:33:19.114Z,99.90
2017-09-14T21:35:46.664Z,99.90
2017-09-14T21:38:14.973Z,99.90
2017-09-14T21:40:42.527Z,99.90
2017-09-14T21:43:10.107Z,99.90
2017-09-14T21:45:37.659Z,99.90
2017-09-14T21:48:05.214Z,99.90
2017-09-14T21:50:32.769Z,99.90
2017-09-14T21:53:00.323Z,99.90
2017-09-14T21:55:27.874Z,99.90
2017-09-14T21:57:55.399Z,99.90
2017-09-14T22:00:22.922Z,99.90
2017-09-14T22:02:50.494Z,99.90
2017-09-14T22:05:17.993Z,99.90
2017-09-14T22:07:46.303Z,99.80
2017-09-14T22:10:13.887Z,99.80
2017-09-14T22:12:41.465Z,99.90
2017-09-14T22:15:09.015Z,99.90
2017-09-14T22:17:36.556Z,99.90
2017-09-14T22:20:04.082Z,99.90
2017-09-14T22:22:32.413Z,99.90
2017-09-14T22:24:59.954Z,99.90
2017-09-14T22:27:27.513Z,99.90
2017-09-14T22:29:55.039Z,99.90
2017-09-14T22:32:23.357Z,99.90
2017-09-14T22:34:50.882Z,99.90
2017-09-14T22:37:18.507Z,99.90
2017-09-14T22:39:46.047Z,99.90
2017-09-14T22:42:13.567Z,99.90
2017-09-14T22:44:41.122Z,99.90
2017-09-14T22:47:08.622Z,99.90
2017-09-14T22:49:36.146Z,99.90
2017-09-14T22:52:03.671Z,99.90
2017-09-14T22:54:31.232Z,99.90
2017-09-14T22:56:58.762Z,99.90
2017-09-14T22:59:26.298Z,99.90
2017-09-14T23:01:53.814Z,99.90
2017-09-14T23:04:22.117Z,99.90
2017-09-14T23:06:49.641Z,99.90
2017-09-14T23:09:18.882Z,99.90
2017-09-14T23:11:46.406Z,99.90
2017-09-14T23:14:14.731Z,99.90
2017-09-14T23:16:42.262Z,99.90
2017-09-14T23:19:10.560Z,99.90
2017-09-14T23:21:38.094Z,99.90
2017-09-14T23:24:06.426Z,99.90
2017-09-14T23:26:33.939Z,99.90
2017-09-14T23:29:02.245Z,99.90
2017-09-14T23:31:29.754Z,99.90
2017-09-14T23:33:58.094Z,99.90
2017-09-14T23:36:25.618Z,99.90
2017-09-14T23:38:53.934Z,99.90
2017-09-14T23:41:21.459Z,99.90
2017-09-14T23:43:49.769Z,99.90
2017-09-14T23:46:17.274Z,99.90
2017-09-14T23:48:44.826Z,99.90
2017-09-14T23:51:12.362Z,99.90
2017-09-14T23:53:39.907Z,99.90
2017-09-14T23:56:07.428Z,99.90
2017-09-14T23:58:34.978Z,99.90
